Time;durP1;ratioP1;P1;durP2;ratioP2;P2;SDS_P1;SDS_P2;PMS_P1;PMS_P2;Temp;Humidity;BMP_temperature;BMP_pressure;BME280_temperature;BME280_humidity;BME280_pressure;Samples;Min_cycle;Max_cycle;Signal;HPM_P1;HPM_P2
2023/05/04 00:00:31;;;;;;;14.73;8.00;;;;;;;;;;5112775;28;20656;-69
2023/05/04 00:03:38;;;;;;;10.70;8.07;;;;;;;;;;5100350;28;20174;-69
2023/05/04 00:06:43;;;;;;;11.03;7.87;;;;;;;;;;5088931;28;20194;-69
2023/05/04 00:09:48;;;;;;;9.67;7.40;;;;;;;;;;5113011;28;20170;-69
2023/05/04 00:12:53;;;;;;;10.10;8.23;;;;;;;;;;5112716;28;20213;-69
2023/05/04 00:15:57;;;;;;;16.57;9.27;;;;;;;;;;5112700;28;20656;-69
2023/05/04 00:19:01;;;;;;;14.83;9.50;;;;;;;;;;5112382;28;20222;-69
2023/05/04 00:22:05;;;;;;;12.20;9.73;;;;;;;;;;5112387;28;20210;-68
2023/05/04 00:25:10;;;;;;;17.53;11.27;;;;;;;;;;5100237;28;20181;-69
2023/05/04 00:28:14;;;;;;;15.53;11.33;;;;;;;;;;5099842;28;20643;-69
2023/05/04 00:31:18;;;;;;;14.03;10.60;;;;;;;;;;5087800;28;20209;-69
2023/05/04 00:34:22;;;;;;;16.83;11.77;;;;;;;;;;5103657;28;20198;-69
2023/05/04 00:37:26;;;;;;;17.93;11.40;;;;;;;;;;5116311;28;20178;-69
2023/05/04 00:40:30;;;;;;;13.87;11.33;;;;;;;;;;5116254;28;20201;-69
2023/05/04 00:43:34;;;;;;;18.03;12.57;;;;;;;;;;5103117;28;20198;-69
2023/05/04 00:46:39;;;;;;;17.37;11.83;;;;;;;;;;5101923;28;20175;-69
2023/05/04 00:49:43;;;;;;;13.63;10.83;;;;;;;;;;5091657;28;20190;-69
2023/05/04 00:52:48;;;;;;;14.67;11.27;;;;;;;;;;5115506;28;20209;-69
2023/05/04 00:55:53;;;;;;;20.07;11.33;;;;;;;;;;5102939;28;20193;-69
2023/05/04 00:58:57;;;;;;;15.23;11.20;;;;;;;;;;5115564;28;20221;-69
2023/05/04 01:02:01;;;;;;;19.47;10.70;;;;;;;;;;5091315;28;20217;-69
2023/05/04 01:05:06;;;;;;;15.50;11.03;;;;;;;;;;5115604;28;20677;-69
2023/05/04 01:08:24;;;;;;;13.53;9.77;;;;;;;;;;5102923;28;20529;-69
2023/05/04 01:11:53;;;;;;;14.37;10.67;;;;;;;;;;5102783;28;20239;-69
2023/05/04 01:14:59;;;;;;;14.37;11.13;;;;;;;;;;5102896;28;20178;-69
2023/05/04 01:18:04;;;;;;;17.13;9.80;;;;;;;;;;5115343;28;20506;-69
2023/05/04 01:21:11;;;;;;;20.67;10.80;;;;;;;;;;5102784;28;20206;-69
2023/05/04 01:24:15;;;;;;;13.70;10.07;;;;;;;;;;5114105;28;20174;-69
2023/05/04 01:27:25;;;;;;;12.97;10.10;;;;;;;;;;5102674;28;20182;-69
2023/05/04 01:30:34;;;;;;;11.80;9.50;;;;;;;;;;5115052;28;20656;-69
2023/05/04 01:33:40;;;;;;;13.57;10.17;;;;;;;;;;5091108;28;20175;-69
2023/05/04 01:36:44;;;;;;;12.87;10.37;;;;;;;;;;5079343;28;20596;-68
2023/05/04 01:39:48;;;;;;;13.63;9.97;;;;;;;;;;5102437;28;20206;-69
2023/05/04 01:42:52;;;;;;;13.77;9.57;;;;;;;;;;5102167;28;20217;-68
2023/05/04 01:45:56;;;;;;;12.97;9.90;;;;;;;;;;5102202;28;20523;-69
2023/05/04 01:49:01;;;;;;;14.27;9.43;;;;;;;;;;5102165;28;20175;-69
2023/05/04 01:52:05;;;;;;;14.80;9.63;;;;;;;;;;5101918;28;20213;-68
2023/05/04 01:55:09;;;;;;;13.73;9.47;;;;;;;;;;5090158;28;20170;-69
2023/05/04 01:58:13;;;;;;;14.03;9.33;;;;;;;;;;5100605;28;20190;-69
2023/05/04 02:01:17;;;;;;;15.00;9.33;;;;;;;;;;5087213;28;20221;-69
2023/05/04 02:04:21;;;;;;;11.87;9.03;;;;;;;;;;5098108;28;20238;-69
2023/05/04 02:07:25;;;;;;;11.00;9.40;;;;;;;;;;5085990;28;20241;-69
2023/05/04 02:10:29;;;;;;;13.00;8.33;;;;;;;;;;5097605;28;20170;-69
2023/05/04 02:13:33;;;;;;;11.73;8.93;;;;;;;;;;5085926;28;20189;-69
2023/05/04 02:16:38;;;;;;;15.57;9.30;;;;;;;;;;5097673;28;20510;-70
2023/05/04 02:19:42;;;;;;;11.37;8.17;;;;;;;;;;5110298;28;20209;-69
2023/05/04 02:22:46;;;;;;;13.87;8.73;;;;;;;;;;5110324;28;20217;-70
2023/05/04 02:25:51;;;;;;;11.50;7.87;;;;;;;;;;5097632;28;20170;-69
2023/05/04 02:28:55;;;;;;;11.30;8.73;;;;;;;;;;5110048;28;20197;-69
2023/05/04 02:31:59;;;;;;;12.63;9.00;;;;;;;;;;5095271;28;20222;-68
2023/05/04 02:35:03;;;;;;;11.23;8.27;;;;;;;;;;5100940;28;20190;-69
2023/05/04 02:38:07;;;;;;;12.00;8.17;;;;;;;;;;5090086;28;20529;-69
2023/05/04 02:41:12;;;;;;;11.57;8.33;;;;;;;;;;5101403;28;20320;-68
2023/05/04 02:44:17;;;;;;;8.97;7.83;;;;;;;;;;5101969;28;20182;-69
2023/05/04 02:47:21;;;;;;;10.73;7.37;;;;;;;;;;5089837;28;20182;-68
2023/05/04 02:50:25;;;;;;;12.97;7.83;;;;;;;;;;5101574;28;20178;-69
2023/05/04 02:53:29;;;;;;;10.03;7.77;;;;;;;;;;5113870;28;20178;-68
2023/05/04 02:56:34;;;;;;;11.03;7.60;;;;;;;;;;5089891;28;20178;-69
2023/05/04 02:59:38;;;;;;;12.67;7.47;;;;;;;;;;5089764;28;20205;-68
2023/05/04 03:02:42;;;;;;;10.43;7.47;;;;;;;;;;5101078;28;20213;-70
2023/05/04 03:05:46;;;;;;;10.13;7.83;;;;;;;;;;5101398;28;20178;-69
2023/05/04 03:08:50;;;;;;;15.40;7.73;;;;;;;;;;5100527;28;20198;-70
2023/05/04 03:11:55;;;;;;;10.63;7.57;;;;;;;;;;5089700;28;20551;-68
2023/05/04 03:14:59;;;;;;;13.33;7.87;;;;;;;;;;5090011;28;20632;-69
2023/05/04 03:18:03;;;;;;;10.50;7.47;;;;;;;;;;5101297;28;20182;-70
2023/05/04 03:21:07;;;;;;;12.10;7.30;;;;;;;;;;5101142;28;20229;-69
2023/05/04 03:24:12;;;;;;;10.60;7.70;;;;;;;;;;5100936;28;20178;-69
2023/05/04 03:27:16;;;;;;;10.43;7.30;;;;;;;;;;5113667;28;20174;-69
2023/05/04 03:30:20;;;;;;;10.60;7.20;;;;;;;;;;5114202;22;20233;-73
2023/05/04 03:33:25;;;;;;;10.27;7.80;;;;;;;;;;5081001;28;20171;-73
2023/05/04 03:36:30;;;;;;;12.40;7.60;;;;;;;;;;5080585;28;20191;-72
2023/05/04 03:39:35;;;;;;;12.93;7.37;;;;;;;;;;5093336;28;20199;-73
2023/05/04 03:42:39;;;;;;;12.50;8.17;;;;;;;;;;5069193;28;20214;-73
2023/05/04 03:45:44;;;;;;;12.07;7.60;;;;;;;;;;5069352;28;20629;-73
2023/05/04 03:48:48;;;;;;;10.37;7.67;;;;;;;;;;5093225;28;20199;-73
2023/05/04 03:51:54;;;;;;;12.67;7.53;;;;;;;;;;5080774;28;20214;-73
2023/05/04 03:55:00;;;;;;;10.83;8.50;;;;;;;;;;5080791;28;20174;-72
2023/05/04 03:58:03;;;;;;;11.87;7.20;;;;;;;;;;5080960;28;20174;-73
2023/05/04 04:01:09;;;;;;;11.10;7.20;;;;;;;;;;5069047;28;20708;-73
2023/05/04 04:04:13;;;;;;;10.50;7.93;;;;;;;;;;5080837;28;20175;-73
2023/05/04 04:07:17;;;;;;;12.30;7.83;;;;;;;;;;5057701;28;20186;-73
2023/05/04 04:10:21;;;;;;;10.30;7.87;;;;;;;;;;5080414;28;20183;-73
2023/05/04 04:13:26;;;;;;;10.80;8.10;;;;;;;;;;5091877;28;20175;-73
2023/05/04 04:16:30;;;;;;;11.77;7.57;;;;;;;;;;5080463;28;20190;-73
2023/05/04 04:19:35;;;;;;;12.87;7.90;;;;;;;;;;5080418;28;20202;-73
2023/05/04 04:22:39;;;;;;;12.10;7.83;;;;;;;;;;5096372;28;20214;-73
2023/05/04 04:25:44;;;;;;;11.63;6.87;;;;;;;;;;5084002;28;20182;-73
2023/05/04 04:28:49;;;;;;;10.57;7.40;;;;;;;;;;5072803;28;20183;-73
2023/05/04 04:31:53;;;;;;;9.10;6.63;;;;;;;;;;5096134;28;20210;-73
2023/05/04 04:34:57;;;;;;;11.00;7.50;;;;;;;;;;5083887;28;20174;-73
2023/05/04 04:38:02;;;;;;;9.30;6.90;;;;;;;;;;5096089;28;20187;-73
2023/05/04 04:41:05;;;;;;;10.30;7.40;;;;;;;;;;5096650;28;20206;-73
2023/05/04 04:44:10;;;;;;;11.70;6.80;;;;;;;;;;5096291;28;20194;-73
2023/05/04 04:47:15;;;;;;;8.57;6.80;;;;;;;;;;5083479;28;20178;-73
2023/05/04 04:50:19;;;;;;;12.90;7.47;;;;;;;;;;5096601;28;20171;-74
2023/05/04 04:53:23;;;;;;;11.00;7.30;;;;;;;;;;5083851;28;20641;-73
2023/05/04 04:56:28;;;;;;;11.47;7.30;;;;;;;;;;5083520;28;20179;-73
2023/05/04 04:59:32;;;;;;;9.67;6.77;;;;;;;;;;5083788;28;20182;-72
2023/05/04 05:02:36;;;;;;;9.17;6.93;;;;;;;;;;5095705;28;20206;-73
2023/05/04 05:05:40;;;;;;;14.47;6.83;;;;;;;;;;5100277;28;20179;-72
2023/05/04 05:08:45;;;;;;;13.20;6.70;;;;;;;;;;5099514;28;20633;-72
2023/05/04 05:11:49;;;;;;;13.37;7.10;;;;;;;;;;5087753;28;20207;-72
2023/05/04 05:14:53;;;;;;;10.97;6.63;;;;;;;;;;5099940;28;20174;-73
2023/05/04 05:17:58;;;;;;;9.43;6.70;;;;;;;;;;5099377;28;20179;-73
2023/05/04 05:21:03;;;;;;;9.57;6.53;;;;;;;;;;5086836;28;20203;-72
2023/05/04 05:24:07;;;;;;;10.07;7.13;;;;;;;;;;5098785;28;20204;-73
2023/05/04 05:27:11;;;;;;;13.10;7.07;;;;;;;;;;5098467;28;20178;-73
2023/05/04 05:30:15;;;;;;;10.97;6.73;;;;;;;;;;5098444;28;20194;-72
2023/05/04 05:33:20;;;;;;;11.63;7.03;;;;;;;;;;5084767;28;20179;-73
2023/05/04 05:36:24;;;;;;;11.37;6.63;;;;;;;;;;5097601;28;20179;-73
2023/05/04 05:39:28;;;;;;;11.13;6.37;;;;;;;;;;5097522;28;20514;-73
2023/05/04 05:42:33;;;;;;;12.23;6.20;;;;;;;;;;5097241;28;20207;-73
2023/05/04 05:45:37;;;;;;;14.17;6.57;;;;;;;;;;5096283;28;20190;-73
2023/05/04 05:48:41;;;;;;;8.80;6.37;;;;;;;;;;5095928;28;20170;-73
2023/05/04 05:51:45;;;;;;;8.93;6.23;;;;;;;;;;5096468;28;20541;-73
2023/05/04 05:54:50;;;;;;;10.00;6.83;;;;;;;;;;5095722;28;20179;-72
2023/05/04 05:57:54;;;;;;;13.83;6.23;;;;;;;;;;5095236;28;20179;-73
2023/05/04 06:00:58;;;;;;;12.13;6.50;;;;;;;;;;5082778;28;20211;-73
2023/05/04 06:04:02;;;;;;;17.90;6.80;;;;;;;;;;5095271;28;20179;-73
2023/05/04 06:07:06;;;;;;;20.23;6.50;;;;;;;;;;5094735;28;20170;-73
2023/05/04 06:10:10;;;;;;;10.03;5.73;;;;;;;;;;5083050;28;20183;-73
2023/05/04 06:13:14;;;;;;;10.67;6.00;;;;;;;;;;5095166;28;20617;-73
2023/05/04 06:16:19;;;;;;;8.97;5.97;;;;;;;;;;5082440;28;20179;-73
2023/05/04 06:19:25;;;;;;;7.43;6.00;;;;;;;;;;5071247;28;20182;-73
2023/05/04 06:22:30;;;;;;;9.77;5.87;;;;;;;;;;5094139;28;20214;-74
2023/05/04 06:25:34;;;;;;;11.07;5.73;;;;;;;;;;5094926;28;20175;-74
2023/05/04 06:28:38;;;;;;;13.00;6.17;;;;;;;;;;5094906;28;20179;-74
2023/05/04 06:31:45;;;;;;;7.80;5.60;;;;;;;;;;5081716;28;20218;-74
2023/05/04 06:34:54;;;;;;;7.20;5.97;;;;;;;;;;5082079;28;20175;-74
2023/05/04 06:37:58;;;;;;;9.17;5.80;;;;;;;;;;5081971;28;20175;-74
2023/05/04 06:41:02;;;;;;;8.73;6.10;;;;;;;;;;5081919;28;20557;-74
2023/05/04 06:44:06;;;;;;;8.13;5.23;;;;;;;;;;5081943;28;20183;-74
2023/05/04 06:47:11;;;;;;;11.53;6.57;;;;;;;;;;5081958;28;20175;-74
2023/05/04 06:50:15;;;;;;;11.77;6.13;;;;;;;;;;5093753;28;20171;-73
2023/05/04 06:53:19;;;;;;;6.93;5.73;;;;;;;;;;5093822;28;20182;-74
2023/05/04 06:56:23;;;;;;;8.00;6.13;;;;;;;;;;5081711;28;20187;-74
2023/05/04 06:59:27;;;;;;;11.43;6.77;;;;;;;;;;5070327;28;20179;-74
2023/05/04 07:02:31;;;;;;;12.67;6.13;;;;;;;;;;5081137;28;20226;-73
2023/05/04 07:05:36;;;;;;;13.63;6.50;;;;;;;;;;5093838;28;20198;-74
2023/05/04 07:08:40;;;;;;;10.93;6.37;;;;;;;;;;5069979;28;20174;-74
2023/05/04 07:11:44;;;;;;;12.33;6.60;;;;;;;;;;5081060;28;20210;-74
2023/05/04 07:14:48;;;;;;;7.07;6.20;;;;;;;;;;5081404;28;20199;-74
2023/05/04 07:17:53;;;;;;;7.67;5.87;;;;;;;;;;5081380;28;20182;-74
2023/05/04 07:20:57;;;;;;;7.17;6.13;;;;;;;;;;5093798;28;20652;-74
2023/05/04 07:24:01;;;;;;;10.30;6.53;;;;;;;;;;5081058;28;20178;-74
2023/05/04 07:27:05;;;;;;;9.23;5.67;;;;;;;;;;5081257;28;20174;-74
2023/05/04 07:30:10;;;;;;;25.73;6.77;;;;;;;;;;5080943;28;20542;-73
2023/05/04 07:33:14;;;;;;;9.70;6.17;;;;;;;;;;5081060;28;20179;-74
2023/05/04 07:36:19;;;;;;;8.13;6.63;;;;;;;;;;5093548;28;20179;-73
2023/05/04 07:39:23;;;;;;;9.97;6.33;;;;;;;;;;5080771;28;20182;-74
2023/05/04 07:42:27;;;;;;;9.60;5.97;;;;;;;;;;5081152;28;20593;-74
2023/05/04 07:45:32;;;;;;;11.73;6.17;;;;;;;;;;5080794;28;20175;-73
2023/05/04 07:48:36;;;;;;;9.93;6.43;;;;;;;;;;5081063;28;20175;-74
2023/05/04 07:51:40;;;;;;;10.00;6.00;;;;;;;;;;5093364;28;20210;-74
2023/05/04 07:54:44;;;;;;;11.13;5.87;;;;;;;;;;5093444;28;20194;-74
2023/05/04 07:57:48;;;;;;;7.67;6.30;;;;;;;;;;5073443;28;20182;-74
2023/05/04 08:00:53;;;;;;;8.07;5.70;;;;;;;;;;5096688;28;20206;-74
2023/05/04 08:03:57;;;;;;;9.47;6.10;;;;;;;;;;5096830;28;20178;-74
2023/05/04 08:07:01;;;;;;;8.73;6.07;;;;;;;;;;5084768;28;20175;-74
2023/05/04 08:10:06;;;;;;;8.60;5.90;;;;;;;;;;5096866;28;20175;-74
2023/05/04 08:13:10;;;;;;;9.00;6.03;;;;;;;;;;5096569;28;20211;-74
2023/05/04 08:16:15;;;;;;;11.60;5.90;;;;;;;;;;5096841;28;20175;-74
2023/05/04 08:19:19;;;;;;;7.80;5.77;;;;;;;;;;5096798;28;20179;-74
2023/05/04 08:22:23;;;;;;;10.17;5.63;;;;;;;;;;5096414;28;20222;-74
2023/05/04 08:25:27;;;;;;;7.03;5.33;;;;;;;;;;5084290;28;20545;-74
2023/05/04 08:28:35;;;;;;;7.37;5.83;;;;;;;;;;5084112;28;20195;-74
2023/05/04 08:31:39;;;;;;;10.77;6.30;;;;;;;;;;5096594;28;20689;-74
2023/05/04 08:34:43;;;;;;;7.27;5.47;;;;;;;;;;5072735;28;20195;-74
2023/05/04 08:37:47;;;;;;;8.97;4.80;;;;;;;;;;5096431;28;20179;-74
2023/05/04 08:40:52;;;;;;;6.20;4.80;;;;;;;;;;5072519;28;20170;-74
2023/05/04 08:43:57;;;;;;;6.33;5.13;;;;;;;;;;5084119;28;20614;-75
2023/05/04 08:47:03;;;;;;;4.60;4.13;;;;;;;;;;5072000;28;20179;-74
2023/05/04 08:50:08;;;;;;;6.13;5.03;;;;;;;;;;5096162;28;20198;-74
2023/05/04 08:53:14;;;;;;;10.03;5.10;;;;;;;;;;5095985;28;20511;-74
2023/05/04 08:56:21;;;;;;;6.77;5.00;;;;;;;;;;5083701;28;20524;-74
2023/05/04 08:59:27;;;;;;;6.43;5.30;;;;;;;;;;5083291;28;20180;-75
2023/05/04 09:02:32;;;;;;;5.97;4.80;;;;;;;;;;5083376;28;20220;-74
2023/05/04 09:05:37;;;;;;;8.13;5.33;;;;;;;;;;5096111;28;20620;-74
2023/05/04 09:08:41;;;;;;;6.20;4.67;;;;;;;;;;5071214;28;20651;-74
2023/05/04 09:11:46;;;;;;;8.47;5.07;;;;;;;;;;5095854;28;20216;-75
2023/05/04 09:14:51;;;;;;;6.47;5.13;;;;;;;;;;5083575;28;20175;-74
2023/05/04 09:18:01;;;;;;;6.93;5.23;;;;;;;;;;5095398;28;20195;-75
2023/05/04 09:21:06;;;;;;;7.80;5.43;;;;;;;;;;5095703;28;20180;-74
2023/05/04 09:24:11;;;;;;;5.43;4.93;;;;;;;;;;5082831;28;20634;-74
2023/05/04 09:27:18;;;;;;;8.63;5.40;;;;;;;;;;5095441;28;20185;-74
2023/05/04 09:30:22;;;;;;;5.80;4.83;;;;;;;;;;5100790;22;20222;-70
2023/05/04 09:33:27;;;;;;;6.80;4.93;;;;;;;;;;5095199;28;20176;-70
2023/05/04 09:36:32;;;;;;;11.20;5.50;;;;;;;;;;5095392;28;20178;-70
2023/05/04 09:39:36;;;;;;;7.23;4.80;;;;;;;;;;5082381;28;20198;-70
2023/05/04 09:42:41;;;;;;;7.03;5.07;;;;;;;;;;5082142;28;20219;-70
2023/05/04 09:45:45;;;;;;;7.40;5.17;;;;;;;;;;5095060;28;20193;-70
2023/05/04 09:48:51;;;;;;;5.50;4.37;;;;;;;;;;5070849;28;20523;-70
2023/05/04 09:51:57;;;;;;;7.10;5.43;;;;;;;;;;5094874;28;20211;-70
2023/05/04 09:55:03;;;;;;;5.67;4.57;;;;;;;;;;5070703;28;20183;-70
2023/05/04 09:58:08;;;;;;;6.50;4.60;;;;;;;;;;5082280;28;20178;-71
2023/05/04 10:01:12;;;;;;;6.93;5.20;;;;;;;;;;5094390;28;20219;-71
2023/05/04 10:04:16;;;;;;;7.43;4.80;;;;;;;;;;5081814;28;20196;-70
2023/05/04 10:07:21;;;;;;;8.00;5.63;;;;;;;;;;5094107;28;20200;-70
2023/05/04 10:10:26;;;;;;;7.93;5.20;;;;;;;;;;5094173;28;20176;-70
2023/05/04 10:13:29;;;;;;;6.60;5.17;;;;;;;;;;5094675;28;20182;-70
2023/05/04 10:17:11;;;;;;;6.17;4.03;;;;;;;;;;5081798;28;20631;-70
2023/05/04 10:20:42;;;;;;;9.70;5.00;;;;;;;;;;5094307;28;20187;-70
2023/05/04 10:24:24;;;;;;;11.43;4.90;;;;;;;;;;5094029;28;20173;-70
2023/05/04 10:27:40;;;;;;;9.20;5.10;;;;;;;;;;5070372;28;20188;-70
2023/05/04 10:30:44;;;;;;;5.67;4.20;;;;;;;;;;5081169;28;20205;-71
2023/05/04 10:33:48;;;;;;;5.27;4.03;;;;;;;;;;5094040;28;20176;-70
2023/05/04 10:36:53;;;;;;;3.80;3.37;;;;;;;;;;5093707;28;20174;-71
2023/05/04 10:39:57;;;;;;;4.77;3.67;;;;;;;;;;5081490;28;20175;-70
2023/05/04 10:43:01;;;;;;;5.63;3.33;;;;;;;;;;5093458;28;20220;-70
2023/05/04 10:46:18;;;;;;;13.63;4.23;;;;;;;;;;5081620;28;20197;-71
2023/05/04 10:49:23;;;;;;;5.05;4.10;;;;;;;;;;5094365;28;20511;-70
2023/05/04 10:52:27;;;;;;;7.07;4.50;;;;;;;;;;5093598;28;20218;-71
2023/05/04 10:55:39;;;;;;;5.00;4.30;;;;;;;;;;5081242;28;20196;-70
2023/05/04 10:58:43;;;;;;;7.03;4.10;;;;;;;;;;5093724;28;20179;-70
2023/05/04 11:01:48;;;;;;;5.93;3.78;;;;;;;;;;5093450;28;20218;-70
2023/05/04 11:05:08;;;;;;;5.27;3.67;;;;;;;;;;5093311;28;20205;-70
2023/05/04 11:08:25;;;;;;;5.17;3.37;;;;;;;;;;5080848;28;20188;-70
2023/05/04 11:11:35;;;;;;;5.43;3.43;;;;;;;;;;5093096;28;20213;-70
2023/05/04 11:14:41;;;;;;;4.43;3.83;;;;;;;;;;5093728;28;20180;-70
2023/05/04 11:17:51;;;;;;;6.63;3.10;;;;;;;;;;5081618;28;20181;-70
2023/05/04 11:20:56;;;;;;;4.75;3.25;;;;;;;;;;5093467;28;20194;-70
2023/05/04 11:24:01;;;;;;;5.65;3.38;;;;;;;;;;5093133;28;20184;-70
2023/05/04 11:27:06;;;;;;;4.20;3.33;;;;;;;;;;5093047;28;20200;-70
2023/05/04 11:30:10;;;;;;;8.15;5.22;;;;;;;;;;5081751;28;20205;-70
2023/05/04 11:33:15;;;;;;;3.47;3.13;;;;;;;;;;5097233;28;20514;-70
2023/05/04 11:36:21;;;;;;;3.80;3.50;;;;;;;;;;5073512;28;20636;-70
2023/05/04 11:39:25;;;;;;;5.50;3.63;;;;;;;;;;5084597;28;20182;-71
2023/05/04 11:42:31;;;;;;;7.43;3.55;;;;;;;;;;5097050;28;20703;-70
2023/05/04 11:45:38;;;;;;;4.95;3.40;;;;;;;;;;5084501;28;20196;-71
2023/05/04 11:48:43;;;;;;;7.78;3.30;;;;;;;;;;5097191;28;20176;-71
2023/05/04 11:51:47;;;;;;;4.90;3.67;;;;;;;;;;5097429;28;20216;-70
2023/05/04 11:54:57;;;;;;;3.38;3.08;;;;;;;;;;5084702;28;20642;-71
2023/05/04 11:58:07;;;;;;;4.28;2.78;;;;;;;;;;5097127;28;20188;-71
2023/05/04 12:01:11;;;;;;;3.70;2.50;;;;;;;;;;5096789;28;20212;-71
2023/05/04 12:04:15;;;;;;;3.65;2.60;;;;;;;;;;5096445;28;20540;-69
2023/05/04 12:07:19;;;;;;;5.97;2.97;;;;;;;;;;5096795;28;20183;-70
2023/05/04 12:10:26;;;;;;;6.78;3.65;;;;;;;;;;5097018;28;20189;-70
2023/05/04 12:13:30;;;;;;;4.07;3.17;;;;;;;;;;5084421;28;20176;-70
2023/05/04 12:16:35;;;;;;;4.10;3.08;;;;;;;;;;5096229;28;20175;-72
2023/05/04 12:19:49;;;;;;;4.63;2.90;;;;;;;;;;5096577;28;20182;-72
2023/05/04 12:22:54;;;;;;;5.63;3.70;;;;;;;;;;5096500;28;20232;-70
2023/05/04 12:25:59;;;;;;;4.87;3.40;;;;;;;;;;5083688;28;20553;-71
2023/05/04 12:29:03;;;;;;;5.03;3.00;;;;;;;;;;5096454;28;20183;-71
2023/05/04 12:32:07;;;;;;;5.20;3.00;;;;;;;;;;5096314;28;20230;-71
2023/05/04 12:35:11;;;;;;;4.43;3.70;;;;;;;;;;5083880;28;20177;-71
2023/05/04 12:38:15;;;;;;;3.60;3.00;;;;;;;;;;5083684;28;20177;-71
2023/05/04 12:41:20;;;;;;;4.07;2.63;;;;;;;;;;5095931;28;20565;-71
2023/05/04 12:44:25;;;;;;;6.32;3.70;;;;;;;;;;5096209;28;20637;-72
2023/05/04 12:47:29;;;;;;;5.20;2.92;;;;;;;;;;5083508;28;20190;-71
2023/05/04 12:50:32;;;;;;;4.13;2.85;;;;;;;;;;5083412;28;20182;-71
2023/05/04 12:53:37;;;;;;;4.17;2.60;;;;;;;;;;5095681;28;20171;-71
2023/05/04 12:56:41;;;;;;;3.60;2.50;;;;;;;;;;5096102;28;20174;-71
2023/05/04 12:59:46;;;;;;;4.65;2.90;;;;;;;;;;5083413;28;20191;-71
2023/05/04 13:02:49;;;;;;;5.73;2.77;;;;;;;;;;5095199;28;20234;-72
2023/05/04 13:05:56;;;;;;;7.38;2.88;;;;;;;;;;5095698;28;20181;-71
2023/05/04 13:09:04;;;;;;;2.85;2.17;;;;;;;;;;5095525;28;20192;-71
2023/05/04 13:12:08;;;;;;;4.60;2.30;;;;;;;;;;5083111;28;20215;-71
2023/05/04 13:15:16;;;;;;;4.03;2.58;;;;;;;;;;5095346;28;20174;-71
2023/05/04 13:18:25;;;;;;;5.28;2.65;;;;;;;;;;5095271;28;20172;-71
2023/05/04 13:21:30;;;;;;;3.30;2.47;;;;;;;;;;5094975;28;20215;-71
2023/05/04 13:24:34;;;;;;;5.57;2.90;;;;;;;;;;5095367;28;20523;-71
2023/05/04 13:27:38;;;;;;;4.22;2.70;;;;;;;;;;5095057;28;20184;-71
2023/05/04 13:30:42;;;;;;;4.35;2.90;;;;;;;;;;5094927;28;20212;-71
2023/05/04 13:33:49;;;;;;;3.28;2.20;;;;;;;;;;5095099;28;20202;-71
2023/05/04 13:36:53;;;;;;;3.70;2.57;;;;;;;;;;5095116;28;20180;-71
2023/05/04 13:39:58;;;;;;;3.63;2.60;;;;;;;;;;5082555;28;20179;-71
2023/05/04 13:43:03;;;;;;;3.00;2.10;;;;;;;;;;5082528;28;20553;-71
2023/05/04 13:46:07;;;;;;;6.00;2.47;;;;;;;;;;5094544;28;20195;-71
2023/05/04 13:49:11;;;;;;;7.30;3.17;;;;;;;;;;5094827;28;20513;-71
2023/05/04 13:52:15;;;;;;;4.07;2.30;;;;;;;;;;5094393;28;20224;-71
2023/05/04 13:55:19;;;;;;;2.67;2.40;;;;;;;;;;5082118;28;20178;-71
2023/05/04 13:58:24;;;;;;;2.73;2.17;;;;;;;;;;5094869;28;20177;-72
2023/05/04 14:01:28;;;;;;;4.10;2.30;;;;;;;;;;5094588;28;20212;-71
2023/05/04 14:04:32;;;;;;;4.03;2.17;;;;;;;;;;5081946;28;20541;-72
2023/05/04 14:07:36;;;;;;;3.67;2.60;;;;;;;;;;5094306;28;20184;-72
2023/05/04 14:10:40;;;;;;;2.90;2.30;;;;;;;;;;5081848;28;20183;-71
2023/05/04 14:13:44;;;;;;;3.30;2.17;;;;;;;;;;5094021;28;20176;-71
2023/05/04 14:16:48;;;;;;;4.00;2.27;;;;;;;;;;5093959;28;20185;-71
2023/05/04 14:19:52;;;;;;;3.23;2.40;;;;;;;;;;5093938;28;20180;-71
2023/05/04 14:22:57;;;;;;;6.47;2.60;;;;;;;;;;5081488;28;20225;-71
2023/05/04 14:26:01;;;;;;;3.00;2.30;;;;;;;;;;5070151;28;20179;-71
2023/05/04 14:29:05;;;;;;;2.60;1.95;;;;;;;;;;5094094;28;20183;-73
2023/05/04 14:32:09;;;;;;;3.90;2.53;;;;;;;;;;5093711;28;20224;-73
2023/05/04 14:35:15;;;;;;;3.90;2.40;;;;;;;;;;5094307;28;20174;-71
2023/05/04 14:38:19;;;;;;;4.60;2.60;;;;;;;;;;5093764;28;20182;-71
2023/05/04 14:41:23;;;;;;;6.83;2.43;;;;;;;;;;5094426;28;20208;-72
2023/05/04 14:44:28;;;;;;;3.10;2.27;;;;;;;;;;5081672;28;20210;-71
2023/05/04 14:47:33;;;;;;;4.37;2.40;;;;;;;;;;5081163;28;20180;-71
2023/05/04 14:50:38;;;;;;;14.17;2.83;;;;;;;;;;5093568;28;20187;-71
2023/05/04 14:53:45;;;;;;;4.27;2.33;;;;;;;;;;5069595;28;20525;-71
2023/05/04 14:56:51;;;;;;;2.97;2.17;;;;;;;;;;5069796;28;20195;-71
2023/05/04 14:59:55;;;;;;;3.17;2.37;;;;;;;;;;5081515;28;20672;-71
2023/05/04 15:02:59;;;;;;;3.97;2.73;;;;;;;;;;5093555;28;20222;-72
2023/05/04 15:06:04;;;;;;;4.57;2.10;;;;;;;;;;5092248;28;20197;-71
2023/05/04 15:09:09;;;;;;;6.13;2.70;;;;;;;;;;5093703;28;20185;-71
2023/05/04 15:12:13;;;;;;;3.90;2.80;;;;;;;;;;5069501;28;20211;-71
2023/05/04 15:15:19;;;;;;;3.23;2.43;;;;;;;;;;5093489;28;20660;-71
2023/05/04 15:18:24;;;;;;;3.27;2.50;;;;;;;;;;5081123;28;20178;-71
2023/05/04 15:21:30;;;;;;;5.67;2.77;;;;;;;;;;5080989;28;20216;-72
2023/05/04 15:24:34;;;;;;;3.53;2.40;;;;;;;;;;5080944;28;20209;-72
2023/05/04 15:27:38;;;;;;;5.03;2.77;;;;;;;;;;5093714;28;20180;-72
2023/05/04 15:30:42;;;;;;;4.80;3.10;;;;;;;;;;5069112;28;20658;-72
2023/05/04 15:33:50;;;;;;;5.10;2.80;;;;;;;;;;5107227;22;20231;-73
2023/05/04 15:36:54;;;;;;;4.13;2.37;;;;;;;;;;5081062;28;20191;-73
2023/05/04 15:39:58;;;;;;;6.10;3.10;;;;;;;;;;5093877;28;20198;-72
2023/05/04 15:43:02;;;;;;;6.00;2.67;;;;;;;;;;5093363;28;20215;-72
2023/05/04 15:46:06;;;;;;;5.17;2.40;;;;;;;;;;5093273;28;20179;-74
2023/05/04 15:49:11;;;;;;;3.37;2.30;;;;;;;;;;5080985;28;20176;-73
2023/05/04 15:52:15;;;;;;;6.13;2.33;;;;;;;;;;5093982;28;20265;-73
2023/05/04 15:55:19;;;;;;;6.53;2.73;;;;;;;;;;5080573;28;20179;-73
2023/05/04 15:58:23;;;;;;;4.73;2.70;;;;;;;;;;5093183;28;20182;-73
2023/05/04 16:01:27;;;;;;;9.70;3.03;;;;;;;;;;5080439;28;20211;-73
2023/05/04 16:04:32;;;;;;;2.97;2.33;;;;;;;;;;5080435;28;20210;-73
2023/05/04 16:07:36;;;;;;;4.07;2.93;;;;;;;;;;5081021;28;20178;-73
2023/05/04 16:10:40;;;;;;;7.00;2.83;;;;;;;;;;5093153;28;20624;-73
2023/05/04 16:13:45;;;;;;;4.47;2.20;;;;;;;;;;5093422;28;20506;-73
2023/05/04 16:16:49;;;;;;;6.10;2.53;;;;;;;;;;5082398;28;20186;-73
2023/05/04 16:19:53;;;;;;;3.83;2.50;;;;;;;;;;5096787;28;20511;-73
2023/05/04 16:22:57;;;;;;;6.83;2.30;;;;;;;;;;5084378;28;20689;-73
2023/05/04 16:26:01;;;;;;;6.27;2.63;;;;;;;;;;5072754;28;20648;-73
2023/05/04 16:29:05;;;;;;;6.40;3.03;;;;;;;;;;5096329;28;20190;-73
2023/05/04 16:32:09;;;;;;;3.53;2.30;;;;;;;;;;5096039;28;20214;-73
2023/05/04 16:35:13;;;;;;;7.77;2.30;;;;;;;;;;5084660;28;20510;-73
2023/05/04 16:38:18;;;;;;;3.33;2.50;;;;;;;;;;5096225;28;20194;-73
2023/05/04 16:41:22;;;;;;;7.73;2.70;;;;;;;;;;5083790;28;20214;-72
2023/05/04 16:44:28;;;;;;;7.50;2.83;;;;;;;;;;5072276;28;20210;-73
2023/05/04 16:47:32;;;;;;;5.40;2.60;;;;;;;;;;5083474;28;20175;-73
2023/05/04 16:50:37;;;;;;;4.23;2.60;;;;;;;;;;5096200;28;20190;-73
2023/05/04 16:53:41;;;;;;;9.37;2.50;;;;;;;;;;5095852;28;20191;-73
2023/05/04 16:56:45;;;;;;;3.80;2.23;;;;;;;;;;5096209;28;20195;-73
2023/05/04 16:59:50;;;;;;;3.67;2.30;;;;;;;;;;5083793;28;20179;-73
2023/05/04 17:02:54;;;;;;;32.00;3.83;;;;;;;;;;5083519;28;20210;-73
2023/05/04 17:05:58;;;;;;;2.67;2.20;;;;;;;;;;5095775;28;20175;-73
2023/05/04 17:09:02;;;;;;;4.10;2.37;;;;;;;;;;5095886;28;20178;-72
2023/05/04 17:12:07;;;;;;;3.03;2.23;;;;;;;;;;5095730;28;20218;-73
2023/05/04 17:15:11;;;;;;;5.60;2.20;;;;;;;;;;5096150;28;20170;-73
2023/05/04 17:18:15;;;;;;;4.13;2.40;;;;;;;;;;5095542;28;20179;-73
2023/05/04 17:21:19;;;;;;;20.20;3.00;;;;;;;;;;5095462;28;20214;-73
2023/05/04 17:24:23;;;;;;;2.90;2.27;;;;;;;;;;5082773;28;20222;-73
2023/05/04 17:27:27;;;;;;;3.07;2.30;;;;;;;;;;5094645;28;20656;-73
2023/05/04 17:30:34;;;;;;;8.37;2.80;;;;;;;;;;5095539;28;20171;-73
2023/05/04 17:33:38;;;;;;;6.57;2.80;;;;;;;;;;5095254;28;20541;-72
2023/05/04 17:36:42;;;;;;;5.10;2.60;;;;;;;;;;5071440;28;20178;-73
2023/05/04 17:39:46;;;;;;;2.50;2.20;;;;;;;;;;5083163;28;20629;-73
2023/05/04 17:42:51;;;;;;;3.57;2.30;;;;;;;;;;5094913;28;20210;-73
2023/05/04 17:45:55;;;;;;;17.73;2.80;;;;;;;;;;5082710;28;20179;-73
2023/05/04 17:48:59;;;;;;;5.23;2.30;;;;;;;;;;5082745;28;20190;-73
2023/05/04 17:52:03;;;;;;;4.83;2.33;;;;;;;;;;5082913;28;20214;-73
2023/05/04 17:55:08;;;;;;;5.20;2.27;;;;;;;;;;5082301;28;20178;-73
2023/05/04 17:58:12;;;;;;;3.43;2.13;;;;;;;;;;5082181;28;20526;-73
2023/05/04 18:01:16;;;;;;;4.73;2.00;;;;;;;;;;5082379;28;20680;-73
2023/05/04 18:04:20;;;;;;;5.70;2.37;;;;;;;;;;5094895;28;20206;-73
2023/05/04 18:07:25;;;;;;;5.23;2.40;;;;;;;;;;5082610;28;20178;-73
2023/05/04 18:10:29;;;;;;;7.37;2.43;;;;;;;;;;5095234;28;20629;-73
2023/05/04 18:13:33;;;;;;;4.67;2.30;;;;;;;;;;5094733;28;20514;-74
2023/05/04 18:16:38;;;;;;;4.90;2.10;;;;;;;;;;5094732;28;20174;-73
2023/05/04 18:19:41;;;;;;;5.30;2.10;;;;;;;;;;5070792;28;20629;-73
2023/05/04 18:22:46;;;;;;;7.07;2.40;;;;;;;;;;5094483;28;20680;-73